Latest Weather Observations for Goulburn Airport

IDN60901

Issued at 9:01 pm EST Sunday 24 May 2015 (issued every 10 minutes, with the page automatically refreshed every 10 minutes)

About weather observations | Map of Canberra area stations | Latest observations for Canberra area | Other Formats
Station Details ID: 070330 Name: GOULBURN AIRPORT AWS Lat: -34.81 Lon: 149.73 Height: 640.0 m
Data from the previous 72 hours. | See also: Recent months at Goulburn Airport
Date/Time
EST
Tmp

°C
App
Tmp
°C
Dew
Point
°C
Rel
Hum
%
Delta-T

°C
Wind Press
QNH
hPa
Press
MSL
hPa
Rain
since
9 am
mm
Dir
 
Spd
km/h
Gust
km/h
Spd
kts
Gust
kts
24/08:30pm 1.7 -0.3 -0.2 87 0.7 CALM 0 0 0 0 1031.9 1032.2 0.0
24/08:00pm 1.8 -0.6 -0.3 86 0.8 SSE 2 6 1 3 1031.8 1032.1 0.0
24/07:30pm 1.5 -1.7 -0.6 86 0.8 SSE 6 7 3 4 1031.8 1032.1 0.0
24/07:00pm 2.6 0.5 -0.8 78 1.3 CALM 0 0 0 0 1031.8 1032.1 0.0
24/06:30pm 3.1 0.6 -0.7 76 1.5 S 2 6 1 3 1031.7 1032.0 0.0
24/06:00pm 5.1 1.9 0.5 72 1.8 SE 7 9 4 5 1031.4 1031.8 0.0
24/05:30pm 5.0 0.4 -1.4 63 2.5 WNW 13 15 7 8 1031.2 1031.6 0.0
24/05:00pm 7.6 2.3 -0.6 56 3.3 WNW 17 17 9 9 1031.0 1031.4 0.0
24/04:30pm 11.0 6.6 0.1 47 4.6 WNW 13 17 7 9 1030.8 1031.1 0.0
24/04:00pm 13.9 10.1 1.9 44 5.4 WNW 11 15 6 8 1030.7 1031.0 0.0
24/03:30pm 15.0 11.7 0.1 36 6.5 W 7 15 4 8 1030.5 1030.8 0.0
24/03:00pm 15.1 11.2 -4.2 26 7.7 W 7 11 4 6 1030.5 1030.8 0.0
24/02:30pm 15.0 11.0 -2.0 31 7.1 SW 9 11 5 6 1030.6 1030.9 0.0
24/02:00pm 14.5 10.5 -2.0 32 6.8 WSW 9 13 5 7 1030.7 1031.0 0.0
24/01:30pm 14.1 10.4 -2.8 31 6.9 WSW 7 11 4 6 1031.0 1031.4 0.0
24/01:00pm 13.4 10.2 -0.6 38 5.9 SW 6 11 3 6 1030.9 1031.2 0.0
24/12:30pm 13.2 10.1 -0.1 40 5.7 NW 6 9 3 5 1031.2 1031.6 0.0
24/12:00pm 12.0 9.1 2.7 53 4.2 NNE 7 11 4 6 1031.6 1031.9 0.0
24/11:30am 9.7 7.6 4.1 68 2.6 WSW 4 9 2 5 1032.0 1032.3 0.0
24/11:00am 8.2 6.9 4.0 75 1.9 CALM 0 6 0 3 1032.3 1032.6 0.0
24/10:30am 5.3 3.4 2.8 84 1.1 ENE 2 6 1 3 1032.6 1033.0 0.0
24/10:00am 3.9 1.9 2.4 90 0.6 NE 2 7 1 4 1032.7 1033.1 0.0
24/09:30am 2.1 0.4 1.7 97 0.2 CALM 0 0 0 0 1032.8 1033.2 0.0
24/09:00am -1.3 -4.3 -1.9 96 0.2 WSW 4 6 2 3 1032.9 1033.3 0.0
24/08:41am -2.3 -4.7 -3.0 95 0.1 CALM 0 0 0 0 1032.7 1033.1 0.0
24/08:30am -2.8 -5.2 -3.3 96 0.0 CALM 0 0 0 0 1032.7 1033.1 0.0
24/08:00am -3.9 -6.5 -4.6 95 0.1 CALM 0 0 0 0 1032.6 1033.0 0.0
24/07:30am -4.9 -7.6 -5.7 94 0.1 CALM 0 0 0 0 1032.3 1032.6 0.0
24/07:00am -5.0 -7.7 -6.0 93 0.1 CALM 0 0 0 0 1031.8 1032.1 0.0
24/06:30am -5.1 -7.8 -6.1 93 0.1 CALM 0 0 0 0 1031.4 1031.8 0.0
24/05:30am -4.6 -7.2 -5.4 94 0.1 CALM 0 0 0 0 1031.0 1031.4 0.0
24/05:00am -4.6 -7.2 -5.4 94 0.1 CALM 0 0 0 0 1030.9 1031.2 0.0
24/04:30am -4.5 -7.1 -5.3 94 0.1 CALM 0 0 0 0 1030.8 1031.1 0.0
24/04:00am -4.6 -8.0 -5.4 94 0.1 S 4 6 2 3 1030.7 1031.0 0.0
24/03:30am -4.2 -7.2 -4.9 95 0.0 SSE 2 7 1 4 1030.5 1030.8 0.0
24/03:00am -4.2 -6.8 -5.0 94 0.1 CALM 0 0 0 0 1030.4 1030.7 0.0
24/02:30am -4.2 -6.8 -5.0 94 0.1 CALM 0 0 0 0 1030.4 1030.7 0.0
24/02:00am -3.9 -6.5 -4.6 95 0.1 CALM 0 0 0 0 1030.4 1030.7 0.0
24/01:30am -3.3 -5.8 -4.0 95 0.1 CALM 0 0 0 0 1030.3 1030.6 0.0
24/01:00am -3.4 -5.9 -4.1 95 0.1 CALM 0 0 0 0 1030.2 1030.5 0.0
24/12:30am -2.8 -5.3 -3.6 94 0.1 CALM 0 0 0 0 1030.2 1030.5 0.0
24/12:16am -2.3 -4.7 -3.0 95 0.1 CALM 0 0 0 0 1030.2 1030.5 0.0
24/12:00am -2.1 -4.5 -2.8 95 0.1 CALM 0 0 0 0 1030.1 1030.4 0.0
 
Date/Time
EST
Tmp

°C
App
Tmp
°C
Dew
Point
°C
Rel
Hum
%
Delta-T

°C
Wind Press
QNH
hPa
Press
MSL
hPa
Rain
since
9 am
mm
Dir
 
Spd
km/h
Gust
km/h
Spd
kts
Gust
kts
23/11:30pm -1.9 -4.2 -2.6 95 0.2 CALM 0 0 0 0 1030.1 1030.4 0.0
23/11:00pm -1.8 -4.1 -2.6 94 0.2 CALM 0 0 0 0 1030.1 1030.4 0.0
23/10:30pm -1.5 -3.8 -2.5 93 0.3 CALM 0 0 0 0 1030.3 1030.6 0.0
23/10:00pm -0.4 -3.7 -1.1 95 0.2 WSW 6 7 3 4 1030.3 1030.6 0.0
23/09:30pm -0.4 -2.6 -1.4 93 0.3 CALM 0 0 0 0 1030.3 1030.6 0.0
23/09:00pm 0.2 -2.2 -0.6 94 0.3 ESE 2 6 1 3 1030.4 1030.7 0.0
23/08:30pm -0.1 -2.3 -1.2 92 0.4 CALM 0 0 0 0 1030.3 1030.6 0.0
23/08:00pm 1.3 -0.7 0.0 91 0.5 CALM 0 0 0 0 1030.0 1030.3 0.0
23/07:30pm 1.7 -0.2 0.4 91 0.5 CALM 0 0 0 0 1029.9 1030.2 0.0
23/07:00pm 2.0 -0.1 -0.6 83 1.0 CALM 0 0 0 0 1029.7 1030.1 0.0
23/06:30pm 3.5 1.6 0.4 80 1.2 CALM 0 0 0 0 1029.4 1029.7 0.0
23/06:00pm 5.7 3.0 2.5 80 1.4 NNE 6 7 3 4 1029.2 1029.5 0.0
23/05:30pm 6.0 2.6 1.9 75 1.7 W 9 11 5 6 1029.1 1029.4 0.0
23/05:00pm 9.2 6.4 1.9 60 3.1 NNW 6 9 3 5 1028.9 1029.2 0.0
23/04:30pm 12.3 9.5 3.0 53 4.2 N 7 7 4 4 1028.8 1029.1 0.0
23/04:00pm 13.2 10.4 3.3 51 4.6 NNW 7 11 4 6 1028.8 1029.1 0.0
23/03:30pm 13.4 10.2 2.9 49 4.8 W 9 15 5 8 1028.7 1029.0 0.0
23/03:00pm 13.5 10.5 2.1 46 5.1 W 7 15 4 8 1028.5 1028.8 0.0
23/02:30pm 13.3 10.0 2.5 48 4.9 SSW 9 13 5 7 1028.5 1028.8 0.0
23/02:00pm 13.0 9.7 2.5 49 4.7 W 9 13 5 7 1028.5 1028.8 0.0
23/01:30pm 12.3 9.5 2.2 50 4.5 NE 6 9 3 5 1028.5 1028.8 0.0
23/01:00pm 12.6 10.2 4.1 56 4.0 S 6 11 3 6 1028.7 1029.0 0.0
23/12:30pm 12.5 10.0 4.0 56 4.0 NNE 6 7 3 4 1028.9 1029.2 0.0
23/12:00pm 11.0 8.4 3.3 59 3.5 SW 6 11 3 6 1029.3 1029.6 0.0
23/11:30am 10.3 7.8 3.8 64 3.0 S 6 9 3 5 1030.0 1030.3 0.0
23/11:00am 10.3 7.8 4.0 65 2.9 NE 6 11 3 6 1030.3 1030.6 0.0
23/10:30am 9.1 7.9 4.7 74 2.0 CALM 0 0 0 0 1030.7 1031.0 0.0
23/10:00am 7.1 5.4 3.9 80 1.4 WNW 2 7 1 4 1030.7 1031.0 0.0
23/09:30am 6.0 4.8 4.6 91 0.6 CALM 0 0 0 0 1030.8 1031.1 0.0
23/09:00am 4.1 1.6 4.0 99 0.0 N 6 9 3 5 1030.8 1031.1 0.2
23/08:30am 1.8 0.0 1.5 98 0.1 CALM 0 0 0 0 1030.5 1030.8 0.2
23/08:00am -0.8 -2.9 -1.1 98 0.1 CALM 0 0 0 0 1030.5 1030.8 0.2
23/07:44am -2.0 -4.3 -2.4 97 0.0 CALM 0 0 0 0 1030.4 1030.7 0.2
23/07:30am -2.6 -5.0 -3.1 96 0.1 CALM 0 0 0 0 1030.2 1030.5 0.2
23/07:00am -3.3 -5.8 -4.0 95 0.1 CALM 0 0 0 0 1029.9 1030.2 0.2
23/06:30am -2.7 -5.1 -3.2 96 0.0 CALM 0 4 0 2 1029.5 1029.8 0.2
23/06:00am -2.2 -5.9 -2.6 97 0.0 N 7 9 4 5 1029.3 1029.6 0.2
23/05:30am -1.9 -5.3 -2.3 97 0.1 N 6 7 3 4 1028.9 1029.2 0.2
23/05:00am -1.9 -5.5 -2.3 97 0.1 N 7 9 4 5 1028.8 1029.1 0.2
23/04:30am -1.1 -5.0 -1.5 97 0.1 NNE 9 9 5 5 1028.7 1029.0 0.2
23/04:00am -1.5 -4.9 -1.9 97 0.1 WSW 6 9 3 5 1028.5 1028.8 0.2
23/03:30am -1.2 -3.8 -1.6 97 0.1 S 2 6 1 3 1028.6 1028.9 0.2
23/03:00am -1.4 -4.8 -2.1 95 0.2 ESE 6 7 3 4 1028.7 1029.0 0.2
23/02:30am -0.7 -2.9 -1.3 96 0.2 CALM 0 0 0 0 1028.8 1029.1 0.2
23/02:27am -0.8 -3.0 -1.5 95 0.2 CALM 0 0 0 0 1028.8 1029.1 0.2
23/02:00am -0.6 -3.9 -1.2 96 0.2 SW 6 6 3 3 1028.6 1028.9 0.2
23/01:30am -0.5 -3.8 -1.3 94 0.3 SSE 6 7 3 4 1028.3 1028.5 0.2
23/01:00am 0.3 -2.9 -0.4 95 0.3 SW 6 7 3 4 1028.0 1028.3 0.2
23/12:30am 1.4 -0.5 0.5 94 0.3 CALM 0 6 0 3 1027.9 1028.2 0.2
23/12:00am 2.9 0.5 2.2 95 0.3 SE 4 6 2 3 1028.0 1028.3 0.2
 
Date/Time
EST
Tmp

°C
App
Tmp
°C
Dew
Point
°C
Rel
Hum
%
Delta-T

°C
Wind Press
QNH
hPa
Press
MSL
hPa
Rain
since
9 am
mm
Dir
 
Spd
km/h
Gust
km/h
Spd
kts
Gust
kts
22/11:30pm 3.6 2.1 3.2 97 0.2 CALM 0 0 0 0 1028.3 1028.5 0.2
22/11:00pm 3.0 1.4 2.4 96 0.2 CALM 0 0 0 0 1028.0 1028.3 0.2
22/10:30pm 2.7 1.0 2.1 96 0.2 CALM 0 0 0 0 1027.9 1028.2 0.2
22/10:00pm 2.1 0.3 1.4 95 0.3 CALM 0 0 0 0 1027.8 1028.1 0.2
22/09:30pm 1.7 -0.2 0.8 94 0.4 CALM 0 0 0 0 1027.7 1028.0 0.2
22/09:00pm 1.8 -1.2 1.1 95 0.3 N 6 7 3 4 1027.4 1027.7 0.2
22/08:30pm 1.7 -1.6 0.4 91 0.5 SW 7 9 4 5 1027.0 1027.3 0.2
22/08:00pm 2.5 0.7 0.9 89 0.6 CALM 0 0 0 0 1026.8 1027.0 0.2
22/07:30pm 3.8 2.2 2.3 90 0.6 CALM 0 0 0 0 1026.8 1027.0 0.2
22/07:00pm 4.5 1.7 2.0 84 1.0 SSW 6 9 3 5 1026.4 1026.7 0.2
22/06:30pm 5.9 1.8 2.5 79 1.4 S 13 15 7 8 1026.2 1026.5 0.2
22/06:00pm 8.6 3.6 3.8 72 2.2 S 19 26 10 14 1025.9 1026.2 0.2
22/05:30pm 9.4 4.9 4.2 70 2.4 S 17 22 9 12 1025.6 1025.8 0.2
22/05:00pm 9.6 3.8 4.2 69 2.5 S 24 35 13 19 1025.5 1025.7 0.2
22/04:30pm 10.3 3.2 3.8 64 3.0 S 30 39 16 21 1025.1 1025.3 0.2
22/04:00pm 10.7 4.5 4.2 64 3.0 S 26 37 14 20 1024.6 1024.9 0.2
22/03:30pm 10.7 3.8 4.6 66 2.8 S 30 41 16 22 1024.2 1024.4 0.2
22/03:00pm 10.6 5.1 5.8 72 2.3 SSE 24 32 13 17 1023.9 1024.1 0.2
22/02:30pm 10.3 3.7 5.9 74 2.1 S 30 37 16 20 1023.5 1023.7 0.2
22/02:00pm 9.0 2.5 6.6 85 1.2 S 30 41 16 22 1023.5 1023.7 0.2
22/01:30pm 10.0 2.8 5.8 75 2.0 S 33 44 18 24 1023.4 1023.6 0.2
22/01:13pm 10.6 3.5 5.6 71 2.4 SSE 32 43 17 23 1023.0 1023.3 0.2
22/01:00pm 11.0 3.2 5.1 67 2.8 SSE 35 48 19 26 1022.9 1023.1 0.2
22/12:58pm 11.2 3.5 5.3 67 2.8 SSE 35 46 19 25 1022.9 1023.1 0.2
22/12:30pm 10.4 4.5 5.6 72 2.3 S 26 37 14 20 1022.9 1023.1 0.2
22/12:00pm 10.4 3.3 5.4 71 2.4 SSE 32 39 17 21 1022.8 1023.0 0.2
22/11:30am 10.7 3.0 5.3 69 2.6 SSE 35 50 19 27 1022.8 1023.0 0.2
22/11:00am 10.1 1.7 5.5 73 2.2 SSE 39 56 21 30 1023.1 1023.4 0.2
22/10:30am 10.3 1.9 5.5 72 2.3 S 39 59 21 32 1022.9 1023.1 0.2
22/10:29am 10.1 2.0 5.1 71 2.4 S 37 59 20 32 1022.9 1023.1 0.2
22/10:00am 9.5 0.9 6.4 81 1.5 S 41 57 22 31 1022.6 1022.8 0.0
22/09:52am 9.6 2.2 6.9 83 1.3 S 35 57 19 31 1022.5 1022.7 0.0
22/09:30am 8.8 0.7 7.1 89 0.8 S 39 52 21 28 1022.2 1022.4 0.0
22/09:08am 8.6 -0.2 7.1 90 0.7 S 43 57 23 31 1021.7 1021.9 0.0
22/09:00am 8.6 0.2 7.2 91 0.7 S 41 54 22 29 1021.6 1021.7 3.8
22/08:30am 8.8 3.0 8.0 95 0.4 S 28 39 15 21 1021.2 1021.4 3.8
22/08:10am 8.8 2.6 8.0 95 0.4 S 30 35 16 19 1020.9 1021.1 3.2
22/08:09am 8.8 2.6 8.0 95 0.4 S 30 35 16 19 1020.9 1021.1 3.2
22/08:00am 8.8 3.0 8.0 95 0.4 S 28 35 15 19 1020.7 1020.9 3.0
22/07:49am 8.7 3.3 7.9 95 0.4 SSW 26 37 14 20 1020.6 1020.8 2.6
22/07:40am 8.6 3.6 8.0 96 0.3 SSW 24 33 13 18 1020.4 1020.6 2.6
22/07:30am 8.5 3.8 7.9 96 0.3 SSW 22 28 12 15 1020.4 1020.6 2.4
22/07:07am 8.3 4.1 7.5 95 0.4 SSW 19 24 10 13 1020.1 1020.2 2.2
22/07:00am 8.3 4.1 7.5 95 0.4 SSW 19 24 10 13 1020.1 1020.2 2.2
22/06:30am 8.1 4.6 7.3 95 0.4 SSW 15 19 8 10 1019.6 1019.8 1.8
22/06:00am 8.0 3.7 6.9 93 0.5 S 19 22 10 12 1019.4 1019.6 1.4
22/05:41am 8.0 3.1 6.8 92 0.6 SSE 22 28 12 15 1019.2 1019.4 0.8
22/05:30am 8.0 3.5 6.8 92 0.6 SSE 20 30 11 16 1019.1 1019.3 0.4
22/05:08am 8.6 2.8 6.2 85 1.1 S 26 33 14 18 1018.9 1019.0 0.2
22/05:00am 8.5 3.1 6.3 86 1.0 S 24 32 13 17 1018.9 1019.0 0.2
22/04:30am 8.2 2.0 6.0 86 1.0 S 28 35 15 19 1018.8 1018.9 0.2
22/04:00am 8.3 2.8 5.8 84 1.2 S 24 35 13 19 1018.7 1018.8 0.2
22/03:30am 8.4 1.7 5.7 83 1.3 S 30 43 16 23 1018.7 1018.8 0.2
22/03:06am 8.7 2.1 6.2 84 1.2 S 30 39 16 21 1018.9 1019.0 0.2
22/03:00am 8.7 2.2 6.3 85 1.1 S 30 37 16 20 1019.0 1019.2 0.2
22/02:30am 8.8 3.0 6.2 84 1.2 S 26 35 14 19 1019.1 1019.3 0.2
22/02:00am 8.9 4.3 6.7 86 1.1 S 20 28 11 15 1019.4 1019.6 0.2
22/01:30am 9.1 4.8 6.9 86 1.1 S 19 22 10 12 1019.5 1019.7 0.2
22/01:00am 9.3 5.4 7.1 86 1.1 S 17 22 9 12 1019.3 1019.5 0.2
22/12:50am 9.3 5.0 7.1 86 1.1 S 19 26 10 14 1019.4 1019.6 0.2
22/12:30am 8.5 4.6 7.0 90 0.7 S 17 22 9 12 1019.4 1019.6 0.2
22/12:00am 8.3 5.0 6.6 89 0.8 S 13 17 7 9 1019.6 1019.8 0.2
 
Date/Time
EST
Tmp

°C
App
Tmp
°C
Dew
Point
°C
Rel
Hum
%
Delta-T

°C
Wind Press
QNH
hPa
Press
MSL
hPa
Rain
since
9 am
mm
Dir
 
Spd
km/h
Gust
km/h
Spd
kts
Gust
kts
21/11:30pm 9.1 5.6 7.4 89 0.8 SSW 15 17 8 9 1019.7 1019.9 0.2
21/11:00pm 8.8 4.9 7.1 89 0.8 SSE 17 20 9 11 1019.7 1019.9 0.2
21/10:30pm 8.9 5.4 7.2 89 0.8 S 15 17 8 9 1019.9 1020.0 0.2
21/10:00pm 8.7 6.0 7.3 91 0.7 S 11 15 6 8 1019.9 1020.0 0.2
21/09:30pm 8.7 6.5 7.8 94 0.4 S 9 13 5 7 1019.9 1020.0 0.2

Latest Capital City Observations: Canberra | Sydney | Melbourne | Brisbane | Adelaide | Perth | Hobart | Darwin

Other Formats:

Comma delimited format used in spreadsheet applications
http://www.bom.gov.au/fwo/IDN60903/IDN60903.95716.axf

JavaScript Object Notation format (JSON) in row-major order
http://www.bom.gov.au/fwo/IDN60903/IDN60903.95716.json